sensor_id;sensor_type;location;lat;lon;timestamp;temperature;humidity
2995;DHT22;35277;49.890;8.222;2022-11-15T00:02:00;22.10;74.50
2995;DHT22;35277;49.890;8.222;2022-11-15T00:04:49;22.10;74.60
2995;DHT22;35277;49.890;8.222;2022-11-15T00:07:37;22.10;74.60
2995;DHT22;35277;49.890;8.222;2022-11-15T00:10:40;22.00;74.50
2995;DHT22;35277;49.890;8.222;2022-11-15T00:13:27;22.00;74.50
2995;DHT22;35277;49.890;8.222;2022-11-15T00:16:14;22.10;74.50
2995;DHT22;35277;49.890;8.222;2022-11-15T00:19:01;22.10;74.50
2995;DHT22;35277;49.890;8.222;2022-11-15T00:21:48;22.10;74.50
2995;DHT22;35277;49.890;8.222;2022-11-15T00:24:36;22.00;74.40
2995;DHT22;35277;49.890;8.222;2022-11-15T00:27:22;22.00;74.40
2995;DHT22;35277;49.890;8.222;2022-11-15T00:30:09;22.10;74.50
2995;DHT22;35277;49.890;8.222;2022-11-15T00:32:56;22.00;74.40
2995;DHT22;35277;49.890;8.222;2022-11-15T00:35:43;22.00;74.40
2995;DHT22;35277;49.890;8.222;2022-11-15T00:38:31;22.10;74.60
2995;DHT22;35277;49.890;8.222;2022-11-15T00:41:20;22.10;74.50
2995;DHT22;35277;49.890;8.222;2022-11-15T00:44:06;22.10;74.50
2995;DHT22;35277;49.890;8.222;2022-11-15T00:46:53;22.10;74.50
2995;DHT22;35277;49.890;8.222;2022-11-15T00:49:39;22.10;74.60
2995;DHT22;35277;49.890;8.222;2022-11-15T00:52:26;22.10;74.50
2995;DHT22;35277;49.890;8.222;2022-11-15T00:55:14;22.10;74.50
2995;DHT22;35277;49.890;8.222;2022-11-15T00:58:02;22.00;74.40
2995;DHT22;35277;49.890;8.222;2022-11-15T01:00:49;22.10;74.50
2995;DHT22;35277;49.890;8.222;2022-11-15T01:03:36;22.10;74.50
2995;DHT22;35277;49.890;8.222;2022-11-15T01:06:23;22.10;74.50
2995;DHT22;35277;49.890;8.222;2022-11-15T01:09:09;22.10;74.60
2995;DHT22;35277;49.890;8.222;2022-11-15T01:11:55;22.10;74.60
2995;DHT22;35277;49.890;8.222;2022-11-15T01:14:43;22.10;74.60
2995;DHT22;35277;49.890;8.222;2022-11-15T01:17:30;22.10;74.60
2995;DHT22;35277;49.890;8.222;2022-11-15T01:20:17;22.10;74.60
2995;DHT22;35277;49.890;8.222;2022-11-15T01:23:04;22.10;74.60
2995;DHT22;35277;49.890;8.222;2022-11-15T01:25:50;22.10;74.60
2995;DHT22;35277;49.890;8.222;2022-11-15T01:28:39;22.10;74.60
2995;DHT22;35277;49.890;8.222;2022-11-15T01:31:27;22.10;74.60
2995;DHT22;35277;49.890;8.222;2022-11-15T01:34:14;22.10;74.60
2995;DHT22;35277;49.890;8.222;2022-11-15T01:37:00;22.10;74.60
2995;DHT22;35277;49.890;8.222;2022-11-15T01:39:47;22.10;74.60
2995;DHT22;35277;49.890;8.222;2022-11-15T01:42:33;22.10;74.60
2995;DHT22;35277;49.890;8.222;2022-11-15T01:45:20;22.10;74.60
2995;DHT22;35277;49.890;8.222;2022-11-15T01:48:10;22.10;74.60
2995;DHT22;35277;49.890;8.222;2022-11-15T01:50:56;22.10;74.70
2995;DHT22;35277;49.890;8.222;2022-11-15T01:53:46;22.10;74.60
2995;DHT22;35277;49.890;8.222;2022-11-15T01:56:41;22.10;74.70
2995;DHT22;35277;49.890;8.222;2022-11-15T01:59:29;22.10;74.70
2995;DHT22;35277;49.890;8.222;2022-11-15T02:02:16;22.10;74.70
2995;DHT22;35277;49.890;8.222;2022-11-15T02:05:05;22.10;74.60
2995;DHT22;35277;49.890;8.222;2022-11-15T02:07:51;22.10;74.70
2995;DHT22;35277;49.890;8.222;2022-11-15T02:10:37;22.10;74.60
2995;DHT22;35277;49.890;8.222;2022-11-15T02:13:24;22.10;74.70
2995;DHT22;35277;49.890;8.222;2022-11-15T02:16:15;22.10;74.70
2995;DHT22;35277;49.890;8.222;2022-11-15T02:19:25;22.10;74.70
2995;DHT22;35277;49.890;8.222;2022-11-15T02:22:27;22.10;74.70
2995;DHT22;35277;49.890;8.222;2022-11-15T02:25:35;22.10;74.70
2995;DHT22;35277;49.890;8.222;2022-11-15T02:28:38;22.00;74.60
2995;DHT22;35277;49.890;8.222;2022-11-15T02:31:31;22.10;74.70
2995;DHT22;35277;49.890;8.222;2022-11-15T02:34:26;22.10;74.70
2995;DHT22;35277;49.890;8.222;2022-11-15T02:37:18;22.10;74.70
2995;DHT22;35277;49.890;8.222;2022-11-15T02:40:12;22.10;74.70
2995;DHT22;35277;49.890;8.222;2022-11-15T02:43:07;22.10;74.70
2995;DHT22;35277;49.890;8.222;2022-11-15T02:46:16;22.10;74.80
2995;DHT22;35277;49.890;8.222;2022-11-15T02:49:06;22.00;74.60
2995;DHT22;35277;49.890;8.222;2022-11-15T02:51:52;22.00;74.70
2995;DHT22;35277;49.890;8.222;2022-11-15T02:54:40;22.10;74.80
2995;DHT22;35277;49.890;8.222;2022-11-15T02:57:36;22.10;74.80
2995;DHT22;35277;49.890;8.222;2022-11-15T03:00:22;22.10;74.80
2995;DHT22;35277;49.890;8.222;2022-11-15T03:06:29;22.10;74.80
2995;DHT22;35277;49.890;8.222;2022-11-15T03:09:28;22.10;74.80
2995;DHT22;35277;49.890;8.222;2022-11-15T03:12:20;22.00;74.70
2995;DHT22;35277;49.890;8.222;2022-11-15T03:15:12;22.10;74.80
2995;DHT22;35277;49.890;8.222;2022-11-15T03:18:01;22.00;74.70
2995;DHT22;35277;49.890;8.222;2022-11-15T03:20:51;22.10;74.80
2995;DHT22;35277;49.890;8.222;2022-11-15T03:23:40;22.10;74.70
2995;DHT22;35277;49.890;8.222;2022-11-15T03:26:28;22.10;74.70
2995;DHT22;35277;49.890;8.222;2022-11-15T03:29:19;22.10;74.70
2995;DHT22;35277;49.890;8.222;2022-11-15T03:32:11;22.10;74.70
2995;DHT22;35277;49.890;8.222;2022-11-15T03:35:01;22.10;74.80
2995;DHT22;35277;49.890;8.222;2022-11-15T03:37:53;22.10;74.70
2995;DHT22;35277;49.890;8.222;2022-11-15T03:40:45;22.10;74.70
2995;DHT22;35277;49.890;8.222;2022-11-15T03:43:36;22.10;74.80
2995;DHT22;35277;49.890;8.222;2022-11-15T03:46:27;22.10;74.80
2995;DHT22;35277;49.890;8.222;2022-11-15T03:49:22;22.10;74.70
2995;DHT22;35277;49.890;8.222;2022-11-15T03:52:11;22.10;74.70
2995;DHT22;35277;49.890;8.222;2022-11-15T03:55:00;22.10;74.80
2995;DHT22;35277;49.890;8.222;2022-11-15T03:57:51;22.10;74.70
2995;DHT22;35277;49.890;8.222;2022-11-15T04:00:39;22.00;74.70
2995;DHT22;35277;49.890;8.222;2022-11-15T04:03:26;22.00;74.70
2995;DHT22;35277;49.890;8.222;2022-11-15T04:06:12;22.00;74.70
2995;DHT22;35277;49.890;8.222;2022-11-15T04:08:59;22.10;74.80
2995;DHT22;35277;49.890;8.222;2022-11-15T04:11:45;22.10;74.80
2995;DHT22;35277;49.890;8.222;2022-11-15T04:14:33;22.10;74.80
2995;DHT22;35277;49.890;8.222;2022-11-15T04:17:19;22.10;74.80
2995;DHT22;35277;49.890;8.222;2022-11-15T04:20:08;22.00;74.70
2995;DHT22;35277;49.890;8.222;2022-11-15T04:23:14;22.10;74.80
2995;DHT22;35277;49.890;8.222;2022-11-15T04:26:21;22.10;74.80
2995;DHT22;35277;49.890;8.222;2022-11-15T04:29:07;22.10;74.80
2995;DHT22;35277;49.890;8.222;2022-11-15T04:32:13;22.10;74.80
2995;DHT22;35277;49.890;8.222;2022-11-15T04:34:59;22.10;74.80
2995;DHT22;35277;49.890;8.222;2022-11-15T04:37:46;22.10;74.80
2995;DHT22;35277;49.890;8.222;2022-11-15T04:40:34;22.10;74.80
2995;DHT22;35277;49.890;8.222;2022-11-15T04:43:20;22.10;74.80
2995;DHT22;35277;49.890;8.222;2022-11-15T04:46:06;22.10;74.80
2995;DHT22;35277;49.890;8.222;2022-11-15T04:48:55;22.10;74.80
2995;DHT22;35277;49.890;8.222;2022-11-15T04:51:43;22.10;74.80
2995;DHT22;35277;49.890;8.222;2022-11-15T04:54:30;22.00;74.70
2995;DHT22;35277;49.890;8.222;2022-11-15T04:57:16;22.00;74.70
2995;DHT22;35277;49.890;8.222;2022-11-15T05:00:03;22.00;74.70
2995;DHT22;35277;49.890;8.222;2022-11-15T05:02:50;22.00;74.70
2995;DHT22;35277;49.890;8.222;2022-11-15T05:05:57;22.00;74.70
2995;DHT22;35277;49.890;8.222;2022-11-15T05:08:43;22.10;74.80
2995;DHT22;35277;49.890;8.222;2022-11-15T05:11:30;22.10;74.80
2995;DHT22;35277;49.890;8.222;2022-11-15T05:14:16;22.00;74.70
2995;DHT22;35277;49.890;8.222;2022-11-15T05:17:03;22.00;74.70
2995;DHT22;35277;49.890;8.222;2022-11-15T05:19:50;22.00;74.60
2995;DHT22;35277;49.890;8.222;2022-11-15T05:22:38;22.10;74.70
2995;DHT22;35277;49.890;8.222;2022-11-15T05:25:25;22.10;74.70
2995;DHT22;35277;49.890;8.222;2022-11-15T05:28:12;22.10;74.60
2995;DHT22;35277;49.890;8.222;2022-11-15T05:31:00;22.00;74.50
2995;DHT22;35277;49.890;8.222;2022-11-15T05:33:47;22.00;74.50
2995;DHT22;35277;49.890;8.222;2022-11-15T05:36:36;22.00;74.50
2995;DHT22;35277;49.890;8.222;2022-11-15T05:39:25;22.00;74.40
2995;DHT22;35277;49.890;8.222;2022-11-15T05:42:13;22.10;74.50
2995;DHT22;35277;49.890;8.222;2022-11-15T05:45:02;22.00;74.60
2995;DHT22;35277;49.890;8.222;2022-11-15T05:47:49;22.10;75.30
2995;DHT22;35277;49.890;8.222;2022-11-15T05:50:37;22.10;75.70
2995;DHT22;35277;49.890;8.222;2022-11-15T05:53:25;22.10;75.90
2995;DHT22;35277;49.890;8.222;2022-11-15T05:56:14;22.10;76.10
2995;DHT22;35277;49.890;8.222;2022-11-15T05:59:00;22.10;76.20
2995;DHT22;35277;49.890;8.222;2022-11-15T06:01:47;22.10;76.20
2995;DHT22;35277;49.890;8.222;2022-11-15T06:04:33;22.10;76.20
2995;DHT22;35277;49.890;8.222;2022-11-15T06:07:20;22.10;76.20
2995;DHT22;35277;49.890;8.222;2022-11-15T06:10:08;22.10;76.20
2995;DHT22;35277;49.890;8.222;2022-11-15T06:12:59;22.10;76.10
2995;DHT22;35277;49.890;8.222;2022-11-15T06:15:46;22.10;76.20
2995;DHT22;35277;49.890;8.222;2022-11-15T06:18:33;22.10;76.10
2995;DHT22;35277;49.890;8.222;2022-11-15T06:21:20;22.10;76.10
2995;DHT22;35277;49.890;8.222;2022-11-15T06:24:07;22.10;76.20
2995;DHT22;35277;49.890;8.222;2022-11-15T06:26:53;22.10;76.20
2995;DHT22;35277;49.890;8.222;2022-11-15T06:29:41;22.10;76.30
2995;DHT22;35277;49.890;8.222;2022-11-15T06:32:29;22.20;77.20
2995;DHT22;35277;49.890;8.222;2022-11-15T06:35:16;22.20;76.40
2995;DHT22;35277;49.890;8.222;2022-11-15T06:38:04;22.20;76.40
2995;DHT22;35277;49.890;8.222;2022-11-15T06:40:51;22.20;76.40
2995;DHT22;35277;49.890;8.222;2022-11-15T06:43:38;22.20;76.40
2995;DHT22;35277;49.890;8.222;2022-11-15T06:46:26;22.20;76.30
2995;DHT22;35277;49.890;8.222;2022-11-15T06:49:12;22.20;76.30
2995;DHT22;35277;49.890;8.222;2022-11-15T06:51:58;22.20;76.40
2995;DHT22;35277;49.890;8.222;2022-11-15T06:54:45;22.20;76.30
2995;DHT22;35277;49.890;8.222;2022-11-15T06:57:31;22.20;76.30
2995;DHT22;35277;49.890;8.222;2022-11-15T07:00:20;22.10;76.20
2995;DHT22;35277;49.890;8.222;2022-11-15T07:03:09;22.20;76.30
2995;DHT22;35277;49.890;8.222;2022-11-15T07:05:57;22.10;76.20
2995;DHT22;35277;49.890;8.222;2022-11-15T07:08:51;22.20;76.30
2995;DHT22;35277;49.890;8.222;2022-11-15T07:11:37;22.20;76.30
2995;DHT22;35277;49.890;8.222;2022-11-15T07:14:24;22.20;77.10
2995;DHT22;35277;49.890;8.222;2022-11-15T07:17:10;22.20;76.30
2995;DHT22;35277;49.890;8.222;2022-11-15T07:19:58;22.20;76.30
2995;DHT22;35277;49.890;8.222;2022-11-15T07:22:44;22.20;76.20
2995;DHT22;35277;49.890;8.222;2022-11-15T07:25:31;22.10;76.10
2995;DHT22;35277;49.890;8.222;2022-11-15T07:28:17;22.20;76.20
2995;DHT22;35277;49.890;8.222;2022-11-15T07:31:05;22.20;76.10
2995;DHT22;35277;49.890;8.222;2022-11-15T07:33:52;22.20;76.10
2995;DHT22;35277;49.890;8.222;2022-11-15T07:36:40;22.20;76.10
2995;DHT22;35277;49.890;8.222;2022-11-15T07:39:27;22.20;76.00
2995;DHT22;35277;49.890;8.222;2022-11-15T07:42:13;22.20;76.00
2995;DHT22;35277;49.890;8.222;2022-11-15T07:45:18;22.20;76.00
2995;DHT22;35277;49.890;8.222;2022-11-15T07:48:05;22.20;75.90
2995;DHT22;35277;49.890;8.222;2022-11-15T07:50:52;22.10;75.70
2995;DHT22;35277;49.890;8.222;2022-11-15T07:53:39;22.20;75.90
2995;DHT22;35277;49.890;8.222;2022-11-15T07:56:26;22.20;75.90
2995;DHT22;35277;49.890;8.222;2022-11-15T07:59:12;22.10;75.70
2995;DHT22;35277;49.890;8.222;2022-11-15T08:01:59;22.10;75.80
2995;DHT22;35277;49.890;8.222;2022-11-15T08:04:45;22.20;75.90
2995;DHT22;35277;49.890;8.222;2022-11-15T08:07:32;22.20;75.80
2995;DHT22;35277;49.890;8.222;2022-11-15T08:10:20;22.20;75.80
2995;DHT22;35277;49.890;8.222;2022-11-15T08:13:10;22.20;75.80
2995;DHT22;35277;49.890;8.222;2022-11-15T08:15:58;22.20;75.80
2995;DHT22;35277;49.890;8.222;2022-11-15T08:18:44;22.20;75.70
2995;DHT22;35277;49.890;8.222;2022-11-15T08:21:31;22.10;76.40
2995;DHT22;35277;49.890;8.222;2022-11-15T08:24:17;22.10;75.60
2995;DHT22;35277;49.890;8.222;2022-11-15T08:27:05;22.10;75.60
2995;DHT22;35277;49.890;8.222;2022-11-15T08:29:59;22.10;75.60
2995;DHT22;35277;49.890;8.222;2022-11-15T08:32:46;22.10;75.50
2995;DHT22;35277;49.890;8.222;2022-11-15T08:35:33;22.10;75.50
2995;DHT22;35277;49.890;8.222;2022-11-15T08:38:19;22.10;75.50
2995;DHT22;35277;49.890;8.222;2022-11-15T08:41:06;22.20;75.50
2995;DHT22;35277;49.890;8.222;2022-11-15T08:43:53;22.10;75.40
2995;DHT22;35277;49.890;8.222;2022-11-15T08:46:40;22.20;75.60
2995;DHT22;35277;49.890;8.222;2022-11-15T08:49:26;22.20;75.60
2995;DHT22;35277;49.890;8.222;2022-11-15T08:52:13;22.20;75.60
2995;DHT22;35277;49.890;8.222;2022-11-15T08:55:00;22.10;75.50
2995;DHT22;35277;49.890;8.222;2022-11-15T08:57:46;22.20;75.70
2995;DHT22;35277;49.890;8.222;2022-11-15T09:00:34;22.10;75.50
2995;DHT22;35277;49.890;8.222;2022-11-15T09:03:21;22.10;75.50
2995;DHT22;35277;49.890;8.222;2022-11-15T09:06:07;22.20;75.60
2995;DHT22;35277;49.890;8.222;2022-11-15T09:08:54;22.10;75.40
2995;DHT22;35277;49.890;8.222;2022-11-15T09:11:40;22.10;75.40
2995;DHT22;35277;49.890;8.222;2022-11-15T09:14:27;22.20;75.50
2995;DHT22;35277;49.890;8.222;2022-11-15T09:17:15;22.20;75.50
2995;DHT22;35277;49.890;8.222;2022-11-15T09:20:08;22.10;75.40
2995;DHT22;35277;49.890;8.222;2022-11-15T09:22:59;22.10;75.40
2995;DHT22;35277;49.890;8.222;2022-11-15T09:25:45;22.20;75.60
2995;DHT22;35277;49.890;8.222;2022-11-15T09:28:33;22.20;75.50
2995;DHT22;35277;49.890;8.222;2022-11-15T09:31:20;22.10;75.40
2995;DHT22;35277;49.890;8.222;2022-11-15T09:34:08;22.10;75.40
2995;DHT22;35277;49.890;8.222;2022-11-15T09:36:54;22.10;75.40
2995;DHT22;35277;49.890;8.222;2022-11-15T09:39:41;22.10;75.30
2995;DHT22;35277;49.890;8.222;2022-11-15T09:42:39;22.20;75.40
2995;DHT22;35277;49.890;8.222;2022-11-15T09:45:34;22.10;75.30
2995;DHT22;35277;49.890;8.222;2022-11-15T09:48:48;22.10;75.30
2995;DHT22;35277;49.890;8.222;2022-11-15T09:51:36;22.10;75.40
2995;DHT22;35277;49.890;8.222;2022-11-15T09:54:20;22.20;75.50
2995;DHT22;35277;49.890;8.222;2022-11-15T09:57:11;22.10;75.40
2995;DHT22;35277;49.890;8.222;2022-11-15T10:00:06;22.10;75.30
2995;DHT22;35277;49.890;8.222;2022-11-15T10:03:08;22.10;75.40
2995;DHT22;35277;49.890;8.222;2022-11-15T10:05:39;22.10;75.30
2995;DHT22;35277;49.890;8.222;2022-11-15T10:08:28;22.10;75.40
2995;DHT22;35277;49.890;8.222;2022-11-15T10:11:02;22.10;75.30
2995;DHT22;35277;49.890;8.222;2022-11-15T10:13:52;22.10;75.30
2995;DHT22;35277;49.890;8.222;2022-11-15T10:16:49;22.10;75.40
2995;DHT22;35277;49.890;8.222;2022-11-15T10:19:25;22.10;75.50
2995;DHT22;35277;49.890;8.222;2022-11-15T10:22:00;22.20;75.50
2995;DHT22;35277;49.890;8.222;2022-11-15T10:24:37;22.10;75.40
2995;DHT22;35277;49.890;8.222;2022-11-15T10:27:10;22.20;75.50
2995;DHT22;35277;49.890;8.222;2022-11-15T10:29:43;22.20;75.50
2995;DHT22;35277;49.890;8.222;2022-11-15T10:32:11;22.20;75.50
2995;DHT22;35277;49.890;8.222;2022-11-15T10:34:39;22.20;75.40
2995;DHT22;35277;49.890;8.222;2022-11-15T10:37:07;22.20;75.50
2995;DHT22;35277;49.890;8.222;2022-11-15T10:39:36;22.20;75.50
2995;DHT22;35277;49.890;8.222;2022-11-15T10:42:18;22.20;75.50
2995;DHT22;35277;49.890;8.222;2022-11-15T10:44:52;22.20;76.20
2995;DHT22;35277;49.890;8.222;2022-11-15T10:47:28;22.20;76.90
2995;DHT22;35277;49.890;8.222;2022-11-15T10:50:07;22.20;77.60
2995;DHT22;35277;49.890;8.222;2022-11-15T10:52:36;22.20;77.70
2995;DHT22;35277;49.890;8.222;2022-11-15T10:55:21;22.20;77.90
2995;DHT22;35277;49.890;8.222;2022-11-15T10:57:52;22.20;78.20
2995;DHT22;35277;49.890;8.222;2022-11-15T11:00:29;22.20;78.20
2995;DHT22;35277;49.890;8.222;2022-11-15T11:02:59;22.20;78.60
2995;DHT22;35277;49.890;8.222;2022-11-15T11:05:30;22.30;79.00
2995;DHT22;35277;49.890;8.222;2022-11-15T11:08:21;22.30;79.00
2995;DHT22;35277;49.890;8.222;2022-11-15T11:10:54;22.30;79.00
2995;DHT22;35277;49.890;8.222;2022-11-15T11:13:30;22.30;79.00
2995;DHT22;35277;49.890;8.222;2022-11-15T11:16:15;22.30;79.00
2995;DHT22;35277;49.890;8.222;2022-11-15T11:18:51;22.30;79.00
2995;DHT22;35277;49.890;8.222;2022-11-15T11:21:26;22.30;78.80
2995;DHT22;35277;49.890;8.222;2022-11-15T11:24:10;22.30;78.10
2995;DHT22;35277;49.890;8.222;2022-11-15T11:26:46;22.20;77.40
2995;DHT22;35277;49.890;8.222;2022-11-15T11:29:33;22.10;76.90
2995;DHT22;35277;49.890;8.222;2022-11-15T11:32:14;22.00;77.00
2995;DHT22;35277;49.890;8.222;2022-11-15T11:34:52;22.00;77.10
2995;DHT22;35277;49.890;8.222;2022-11-15T11:37:29;22.00;77.10
2995;DHT22;35277;49.890;8.222;2022-11-15T11:40:12;22.00;77.10
2995;DHT22;35277;49.890;8.222;2022-11-15T11:42:47;22.00;77.10
2995;DHT22;35277;49.890;8.222;2022-11-15T11:48:25;22.10;77.20
2995;DHT22;35277;49.890;8.222;2022-11-15T11:51:01;22.10;77.10
2995;DHT22;35277;49.890;8.222;2022-11-15T11:53:37;22.10;77.00
2995;DHT22;35277;49.890;8.222;2022-11-15T11:56:16;22.20;77.10
2995;DHT22;35277;49.890;8.222;2022-11-15T11:58:48;22.10;77.00
2995;DHT22;35277;49.890;8.222;2022-11-15T12:01:22;22.20;77.00
2995;DHT22;35277;49.890;8.222;2022-11-15T12:03:55;22.20;77.00
2995;DHT22;35277;49.890;8.222;2022-11-15T12:06:30;22.20;77.00
2995;DHT22;35277;49.890;8.222;2022-11-15T12:09:02;22.20;77.00
2995;DHT22;35277;49.890;8.222;2022-11-15T12:11:37;22.20;76.90
2995;DHT22;35277;49.890;8.222;2022-11-15T12:14:12;22.20;76.90
2995;DHT22;35277;49.890;8.222;2022-11-15T12:16:43;22.20;76.80
2995;DHT22;35277;49.890;8.222;2022-11-15T12:19:11;22.20;76.80
2995;DHT22;35277;49.890;8.222;2022-11-15T12:21:45;22.20;76.70
2995;DHT22;35277;49.890;8.222;2022-11-15T12:24:18;22.20;76.70
2995;DHT22;35277;49.890;8.222;2022-11-15T12:26:50;22.30;76.70
2995;DHT22;35277;49.890;8.222;2022-11-15T12:29:25;22.20;76.60
2995;DHT22;35277;49.890;8.222;2022-11-15T12:31:56;22.30;76.70
2995;DHT22;35277;49.890;8.222;2022-11-15T12:34:40;22.30;76.60
2995;DHT22;35277;49.890;8.222;2022-11-15T12:40:29;22.30;76.60
2995;DHT22;35277;49.890;8.222;2022-11-15T12:43:04;22.30;76.50
2995;DHT22;35277;49.890;8.222;2022-11-15T12:45:35;22.30;76.50
2995;DHT22;35277;49.890;8.222;2022-11-15T12:51:09;22.30;76.50
2995;DHT22;35277;49.890;8.222;2022-11-15T12:53:36;22.30;76.40
2995;DHT22;35277;49.890;8.222;2022-11-15T12:56:17;22.30;76.40
2995;DHT22;35277;49.890;8.222;2022-11-15T12:58:47;22.30;76.40
2995;DHT22;35277;49.890;8.222;2022-11-15T13:04:27;22.30;76.40
2995;DHT22;35277;49.890;8.222;2022-11-15T13:06:57;22.30;76.40
2995;DHT22;35277;49.890;8.222;2022-11-15T13:09:51;22.30;76.30
2995;DHT22;35277;49.890;8.222;2022-11-15T13:12:57;22.30;76.30
2995;DHT22;35277;49.890;8.222;2022-11-15T13:15:35;22.30;76.30
2995;DHT22;35277;49.890;8.222;2022-11-15T13:21:22;22.30;76.30
2995;DHT22;35277;49.890;8.222;2022-11-15T13:24:13;22.30;76.20
2995;DHT22;35277;49.890;8.222;2022-11-15T13:26:41;22.30;76.20
2995;DHT22;35277;49.890;8.222;2022-11-15T13:29:16;22.30;76.10
2995;DHT22;35277;49.890;8.222;2022-11-15T13:31:45;22.30;76.10
2995;DHT22;35277;49.890;8.222;2022-11-15T13:34:26;22.30;76.10
2995;DHT22;35277;49.890;8.222;2022-11-15T13:37:29;22.30;76.10
2995;DHT22;35277;49.890;8.222;2022-11-15T13:40:15;22.30;76.10
2995;DHT22;35277;49.890;8.222;2022-11-15T13:42:45;22.30;76.10
2995;DHT22;35277;49.890;8.222;2022-11-15T13:45:15;22.30;76.10
2995;DHT22;35277;49.890;8.222;2022-11-15T13:47:43;22.30;76.20
2995;DHT22;35277;49.890;8.222;2022-11-15T13:50:12;22.30;76.30
2995;DHT22;35277;49.890;8.222;2022-11-15T13:52:42;22.30;76.30
2995;DHT22;35277;49.890;8.222;2022-11-15T13:55:14;22.30;76.30
2995;DHT22;35277;49.890;8.222;2022-11-15T13:57:44;22.30;76.20
2995;DHT22;35277;49.890;8.222;2022-11-15T14:00:29;22.30;76.20
2995;DHT22;35277;49.890;8.222;2022-11-15T14:03:06;22.30;76.30
2995;DHT22;35277;49.890;8.222;2022-11-15T14:05:35;22.30;76.20
2995;DHT22;35277;49.890;8.222;2022-11-15T14:08:21;22.30;76.20
2995;DHT22;35277;49.890;8.222;2022-11-15T14:11:06;22.30;76.20
2995;DHT22;35277;49.890;8.222;2022-11-15T14:13:34;22.30;76.20
2995;DHT22;35277;49.890;8.222;2022-11-15T14:16:16;22.30;76.20
2995;DHT22;35277;49.890;8.222;2022-11-15T14:18:46;22.20;76.10
2995;DHT22;35277;49.890;8.222;2022-11-15T14:21:14;22.20;76.10
2995;DHT22;35277;49.890;8.222;2022-11-15T14:23:43;22.20;76.10
2995;DHT22;35277;49.890;8.222;2022-11-15T14:26:27;22.20;76.10
2995;DHT22;35277;49.890;8.222;2022-11-15T14:28:55;22.20;76.10
2995;DHT22;35277;49.890;8.222;2022-11-15T14:31:23;22.20;76.00
2995;DHT22;35277;49.890;8.222;2022-11-15T14:33:50;22.20;76.00
2995;DHT22;35277;49.890;8.222;2022-11-15T14:36:20;22.20;76.10
2995;DHT22;35277;49.890;8.222;2022-11-15T14:38:49;22.20;76.00
2995;DHT22;35277;49.890;8.222;2022-11-15T14:41:19;22.20;75.90
2995;DHT22;35277;49.890;8.222;2022-11-15T14:43:47;22.20;75.90
2995;DHT22;35277;49.890;8.222;2022-11-15T14:46:15;22.20;75.90
2995;DHT22;35277;49.890;8.222;2022-11-15T14:48:43;22.20;75.90
2995;DHT22;35277;49.890;8.222;2022-11-15T14:51:12;22.20;75.90
2995;DHT22;35277;49.890;8.222;2022-11-15T14:53:41;22.20;75.90
2995;DHT22;35277;49.890;8.222;2022-11-15T14:56:12;22.20;75.90
2995;DHT22;35277;49.890;8.222;2022-11-15T14:58:40;22.20;75.90
2995;DHT22;35277;49.890;8.222;2022-11-15T15:01:13;22.20;75.80
2995;DHT22;35277;49.890;8.222;2022-11-15T15:03:41;22.20;75.80
2995;DHT22;35277;49.890;8.222;2022-11-15T15:06:10;22.20;75.90
2995;DHT22;35277;49.890;8.222;2022-11-15T15:08:44;22.20;75.80
2995;DHT22;35277;49.890;8.222;2022-11-15T15:11:14;22.20;75.90
2995;DHT22;35277;49.890;8.222;2022-11-15T15:13:43;22.20;75.80
2995;DHT22;35277;49.890;8.222;2022-11-15T15:16:11;22.20;75.80
2995;DHT22;35277;49.890;8.222;2022-11-15T15:18:39;22.20;75.80
2995;DHT22;35277;49.890;8.222;2022-11-15T15:21:22;22.20;75.80
2995;DHT22;35277;49.890;8.222;2022-11-15T15:23:50;22.10;75.70
2995;DHT22;35277;49.890;8.222;2022-11-15T15:26:22;22.20;75.80
2995;DHT22;35277;49.890;8.222;2022-11-15T15:28:50;22.20;75.70
2995;DHT22;35277;49.890;8.222;2022-11-15T15:31:18;22.20;75.70
2995;DHT22;35277;49.890;8.222;2022-11-15T15:33:46;22.10;75.60
2995;DHT22;35277;49.890;8.222;2022-11-15T15:36:18;22.10;75.60
2995;DHT22;35277;49.890;8.222;2022-11-15T15:38:46;22.10;75.50
2995;DHT22;35277;49.890;8.222;2022-11-15T15:41:15;22.10;75.50
2995;DHT22;35277;49.890;8.222;2022-11-15T15:43:44;22.10;75.50
2995;DHT22;35277;49.890;8.222;2022-11-15T15:46:15;22.10;75.50
2995;DHT22;35277;49.890;8.222;2022-11-15T15:48:43;22.10;75.50
2995;DHT22;35277;49.890;8.222;2022-11-15T15:51:12;22.10;75.40
2995;DHT22;35277;49.890;8.222;2022-11-15T15:53:46;22.10;75.50
2995;DHT22;35277;49.890;8.222;2022-11-15T15:56:14;22.10;75.40
2995;DHT22;35277;49.890;8.222;2022-11-15T15:58:41;22.10;75.40
2995;DHT22;35277;49.890;8.222;2022-11-15T16:01:10;22.10;75.40
2995;DHT22;35277;49.890;8.222;2022-11-15T16:03:38;22.10;75.40
2995;DHT22;35277;49.890;8.222;2022-11-15T16:09:12;22.10;75.50
2995;DHT22;35277;49.890;8.222;2022-11-15T16:11:44;22.10;75.40
2995;DHT22;35277;49.890;8.222;2022-11-15T16:14:12;22.10;75.50
2995;DHT22;35277;49.890;8.222;2022-11-15T16:16:41;22.10;75.50
2995;DHT22;35277;49.890;8.222;2022-11-15T16:19:10;22.10;75.50
2995;DHT22;35277;49.890;8.222;2022-11-15T16:21:38;22.10;75.40
2995;DHT22;35277;49.890;8.222;2022-11-15T16:24:06;22.10;75.50
2995;DHT22;35277;49.890;8.222;2022-11-15T16:26:35;22.10;75.50
2995;DHT22;35277;49.890;8.222;2022-11-15T16:29:03;22.10;75.40
2995;DHT22;35277;49.890;8.222;2022-11-15T16:31:31;22.10;75.50
2995;DHT22;35277;49.890;8.222;2022-11-15T16:34:00;22.10;75.50
2995;DHT22;35277;49.890;8.222;2022-11-15T16:36:30;22.10;75.50
2995;DHT22;35277;49.890;8.222;2022-11-15T16:39:00;22.10;75.50
2995;DHT22;35277;49.890;8.222;2022-11-15T16:41:30;22.10;75.50
2995;DHT22;35277;49.890;8.222;2022-11-15T16:43:58;22.10;75.50
2995;DHT22;35277;49.890;8.222;2022-11-15T16:46:27;22.10;75.50
2995;DHT22;35277;49.890;8.222;2022-11-15T16:48:55;22.10;75.60
2995;DHT22;35277;49.890;8.222;2022-11-15T16:51:24;22.10;75.60
2995;DHT22;35277;49.890;8.222;2022-11-15T16:53:52;22.10;75.60
2995;DHT22;35277;49.890;8.222;2022-11-15T16:56:23;22.10;75.60
2995;DHT22;35277;49.890;8.222;2022-11-15T16:58:51;22.10;75.70
2995;DHT22;35277;49.890;8.222;2022-11-15T17:01:22;22.10;76.50
2995;DHT22;35277;49.890;8.222;2022-11-15T17:03:51;22.10;75.70
2995;DHT22;35277;49.890;8.222;2022-11-15T17:06:20;22.10;75.70
2995;DHT22;35277;49.890;8.222;2022-11-15T17:08:49;22.10;75.70
2995;DHT22;35277;49.890;8.222;2022-11-15T17:11:19;22.10;75.70
2995;DHT22;35277;49.890;8.222;2022-11-15T17:13:47;22.10;75.70
2995;DHT22;35277;49.890;8.222;2022-11-15T17:16:16;22.10;75.80
2995;DHT22;35277;49.890;8.222;2022-11-15T17:18:44;22.10;75.80
2995;DHT22;35277;49.890;8.222;2022-11-15T17:21:19;22.10;75.80
2995;DHT22;35277;49.890;8.222;2022-11-15T17:23:48;22.10;75.80
2995;DHT22;35277;49.890;8.222;2022-11-15T17:26:16;22.10;75.80
2995;DHT22;35277;49.890;8.222;2022-11-15T17:29:04;22.10;75.80
2995;DHT22;35277;49.890;8.222;2022-11-15T17:31:33;22.10;75.80
2995;DHT22;35277;49.890;8.222;2022-11-15T17:34:03;22.10;75.80
2995;DHT22;35277;49.890;8.222;2022-11-15T17:36:31;22.10;75.80
2995;DHT22;35277;49.890;8.222;2022-11-15T17:39:00;22.10;75.80
2995;DHT22;35277;49.890;8.222;2022-11-15T17:41:28;22.10;75.80